Pontoosuc, Illinois
Current Conditions -  °F | °C
As of 10:35 PM on Saturday 22 Nov 2014 (Local Time) from KFSW Reporting Station
Overcast Overcast  
Wind Chill: 54°   Ceiling: 1200
Heat Index: 54°   Visibility: 10mi
Dew Point: 52°   Wind: 13mph
Humidity: 94%   Direction: 190°S
Pressure: 29.78"   Gusts: 20mph
Location:  40.5943°N, 91.1327°W
Report Text: KFSW 230435Z AUTO 19011G17KT 10SM OVC012 12/11 A2978 RMK AO2
Loading
Personal Weather Stations






























Interactive Weather Map New forecast layout! Learn more

10-Day Weather Forecast

Advertisements
Track Severe Weather on mobile